F/V Sanaga 2 — FMIL — position and weather

sailwx.info

Track history (hours):
 
Tides and Currents Weather Stations Pressure Air Temp Water Temp Dewpoint Dewpoint Depression Visibility Wind Speed Wind Dir Waves Ship Positions

F/V Sanaga 2

Last reported at 2018-Jul-18 17:09 UTC. Time now 2018-Jul-19 23:13 UTC.
Position N 47°35' W 004°18'.

Length 14 m.

Type: Fishing. MMSI: 228238600.

Date/timePositionNaut miles runAvg speedWind from/ knotsBaromVisibWave heightAir tempDewpointWater temp
2018-Jul-18 17:09N 47°35' W 004°18'1 3.5
2018-Jul-18 16:58N 47°36' W 004°18'7 0.7
2018-Jul-18 06:58N 47°30' W 004°12'17 2.4
2018-Jul-17 23:59N 47°42' W 003°54'8 8.3
2018-Jul-17 23:04N 47°49' W 003°56'0 8.0
2018-Jul-17 23:00N 47°50' W 003°56'  
2018-Jul-12 22:35N 47°39' W 003°54'14 3.6
2018-Jul-12 18:50N 47°28' W 004°05'1 3.4
2018-Jul-12 18:30N 47°28' W 004°04'2 3.0
2018-Jul-12 18:00N 47°28' W 004°01'5 3.2
2018-Jul-12 16:29N 47°28' W 004°08'2 3.4
2018-Jul-12 15:56N 47°27' W 004°11'3 0.4
2018-Jul-12 07:40N 47°28' W 004°06'1 3.1
2018-Jul-12 07:16N 47°28' W 004°08'1 3.0
2018-Jul-12 07:00N 47°28' W 004°09'2 3.3
2018-Jul-12 06:28N 47°29' W 004°12'1 1.5
2018-Jul-12 05:44N 47°28' W 004°11'1 2.5
2018-Jul-12 05:09N 47°28' W 004°09'4 1.7
2018-Jul-12 02:48N 47°28' W 004°03'1 3.2
2018-Jul-12 02:28N 47°28' W 004°02'2 2.5
2018-Jul-12 01:41N 47°29' W 003°59'1 2.5
2018-Jul-12 01:18N 47°29' W 004°01'4 3.5
2018-Jul-12 00:17N 47°28' W 004°06'1 3.4
2018-Jul-11 23:59N 47°28' W 004°07'9 0.5
2018-Jul-11 04:02N 47°37' W 004°07'11 7.2
2018-Jul-11 02:31N 47°47' W 003°60'3 1.0
2018-Jul-10 23:13N 47°46' W 003°55'4 8.4
2018-Jul-10 22:46N 47°42' W 003°55'18 5.3
2018-Jul-10 19:22N 47°27' W 004°10'1 3.1
2018-Jul-10 19:00N 47°27' W 004°11'10 3.1
2018-Jul-10 15:57N 47°29' W 003°57'1 2.4
2018-Jul-10 15:30N 47°30' W 003°56'2 3.3
2018-Jul-10 14:48N 47°30' W 003°53'1 3.2
2018-Jul-10 14:30N 47°30' W 003°52'1 2.3
2018-Jul-10 14:00N 47°29' W 003°54'2 3.5
2018-Jul-10 13:30N 47°31' W 003°55'2 3.5
2018-Jul-10 13:00N 47°32' W 003°56'2 3.4
2018-Jul-10 12:29N 47°34' W 003°57'2 3.5
2018-Jul-10 12:00N 47°34' W 003°60'3 1.2
2018-Jul-10 09:54N 47°33' W 003°56'1 3.1
2018-Jul-10 09:30N 47°33' W 003°58'2 3.4
2018-Jul-10 08:57N 47°33' W 004°01'2 2.0
2018-Jul-10 07:44N 47°33' W 003°57'1 3.5
2018-Jul-10 07:30N 47°33' W 003°56'2 3.4
2018-Jul-10 07:00N 47°31' W 003°55'1 2.4
2018-Jul-10 06:30N 47°30' W 003°56'2 3.5
2018-Jul-10 06:00N 47°29' W 003°58'2 3.4
2018-Jul-10 05:30N 47°29' W 004°00'2 3.3
2018-Jul-10 05:00N 47°29' W 004°03'2 3.3
2018-Jul-10 04:30N 47°28' W 004°05'2 3.4
2018-Jul-10 04:00N 47°28' W 004°08'2 3.2
2018-Jul-10 03:27N 47°27' W 004°10'1 1.5
2018-Jul-10 02:49N 47°28' W 004°10'3 3.4
2018-Jul-10 02:02N 47°28' W 004°06'0 4.8
2018-Jul-10 01:57N 47°28' W 004°06'1 1.9
2018-Jul-10 01:26N 47°28' W 004°04'1 3.1
2018-Jul-10 01:00N 47°28' W 004°02'1 1.7
2018-Jul-10 00:28N 47°29' W 004°02'2 3.2
2018-Jul-10 00:00N 47°28' W 004°05'2 3.2
2018-Jul-09 23:30N 47°28' W 004°07'2 3.2
2018-Jul-09 23:00N 47°27' W 004°09'9 1.3
2018-Jul-09 16:34N 47°29' W 003°57'1 3.7
2018-Jul-09 16:25N 47°29' W 003°56'1 2.2
2018-Jul-09 15:57N 47°30' W 003°55'1 3.3
2018-Jul-09 15:30N 47°31' W 003°54'2 3.3
2018-Jul-09 15:00N 47°33' W 003°56'1 0.3
2018-Jul-09 12:21N 47°33' W 003°55'1 2.3
2018-Jul-09 11:55N 47°33' W 003°57'8 1.7
2018-Jul-09 06:55N 47°32' W 004°09'1 2.8
2018-Jul-09 06:30N 47°31' W 004°10'2 3.3
2018-Jul-09 05:58N 47°32' W 004°12'21 3.8
2018-Jul-09 00:23N 47°51' W 003°56'3 8.0
2018-Jul-08 23:59N 47°47' W 003°56'4 8.0
2018-Jul-08 23:29N 47°43' W 003°55'4 7.9
2018-Jul-08 23:00N 47°40' W 003°54'4 7.6
2018-Jul-08 22:29N 47°36' W 003°56'4 7.7
2018-Jul-08 22:00N 47°33' W 003°59'4 7.8
2018-Jul-08 21:30N 47°30' W 004°02'  
Track history (hours):
 
Tides and Currents Weather Stations Pressure Air Temp Water Temp Dewpoint Dewpoint Depression Visibility Wind Speed Wind Dir Waves Ship Positions

F/V Sanaga 2

Last reported at 2018-Jul-18 17:09 UTC. Time now 2018-Jul-19 23:13 UTC.
Position N 47°35' W 004°18'.

Length 14 m.

Type: Fishing. MMSI: 228238600.

Date/timePositionNaut miles runAvg speedWind from/ knotsBaromVisibWave heightAir tempDewpointWater temp
2018-Jul-18 17:09N 47°35' W 004°18'1 3.5
2018-Jul-18 16:58N 47°36' W 004°18'7 0.7
2018-Jul-18 06:58N 47°30' W 004°12'17 2.4
2018-Jul-17 23:59N 47°42' W 003°54'8 8.3
2018-Jul-17 23:04N 47°49' W 003°56'0 8.0
2018-Jul-17 23:00N 47°50' W 003°56'  
2018-Jul-12 22:35N 47°39' W 003°54'14 3.6
2018-Jul-12 18:50N 47°28' W 004°05'1 3.4
2018-Jul-12 18:30N 47°28' W 004°04'2 3.0
2018-Jul-12 18:00N 47°28' W 004°01'5 3.2
2018-Jul-12 16:29N 47°28' W 004°08'2 3.4
2018-Jul-12 15:56N 47°27' W 004°11'3 0.4
2018-Jul-12 07:40N 47°28' W 004°06'1 3.1
2018-Jul-12 07:16N 47°28' W 004°08'1 3.0
2018-Jul-12 07:00N 47°28' W 004°09'2 3.3
2018-Jul-12 06:28N 47°29' W 004°12'1 1.5
2018-Jul-12 05:44N 47°28' W 004°11'1 2.5
2018-Jul-12 05:09N 47°28' W 004°09'4 1.7
2018-Jul-12 02:48N 47°28' W 004°03'1 3.2
2018-Jul-12 02:28N 47°28' W 004°02'2 2.5
2018-Jul-12 01:41N 47°29' W 003°59'1 2.5
2018-Jul-12 01:18N 47°29' W 004°01'4 3.5
2018-Jul-12 00:17N 47°28' W 004°06'1 3.4
2018-Jul-11 23:59N 47°28' W 004°07'9 0.5
2018-Jul-11 04:02N 47°37' W 004°07'11 7.2
2018-Jul-11 02:31N 47°47' W 003°60'3 1.0
2018-Jul-10 23:13N 47°46' W 003°55'4 8.4
2018-Jul-10 22:46N 47°42' W 003°55'18 5.3
2018-Jul-10 19:22N 47°27' W 004°10'1 3.1
2018-Jul-10 19:00N 47°27' W 004°11'10 3.1
2018-Jul-10 15:57N 47°29' W 003°57'1 2.4
2018-Jul-10 15:30N 47°30' W 003°56'2 3.3
2018-Jul-10 14:48N 47°30' W 003°53'1 3.2
2018-Jul-10 14:30N 47°30' W 003°52'1 2.3
2018-Jul-10 14:00N 47°29' W 003°54'2 3.5
2018-Jul-10 13:30N 47°31' W 003°55'2 3.5
2018-Jul-10 13:00N 47°32' W 003°56'2 3.4
2018-Jul-10 12:29N 47°34' W 003°57'2 3.5
2018-Jul-10 12:00N 47°34' W 003°60'3 1.2
2018-Jul-10 09:54N 47°33' W 003°56'1 3.1
2018-Jul-10 09:30N 47°33' W 003°58'2 3.4
2018-Jul-10 08:57N 47°33' W 004°01'2 2.0
2018-Jul-10 07:44N 47°33' W 003°57'1 3.5
2018-Jul-10 07:30N 47°33' W 003°56'2 3.4
2018-Jul-10 07:00N 47°31' W 003°55'1 2.4
2018-Jul-10 06:30N 47°30' W 003°56'2 3.5
2018-Jul-10 06:00N 47°29' W 003°58'2 3.4
2018-Jul-10 05:30N 47°29' W 004°00'2 3.3
2018-Jul-10 05:00N 47°29' W 004°03'2 3.3
2018-Jul-10 04:30N 47°28' W 004°05'2 3.4
2018-Jul-10 04:00N 47°28' W 004°08'2 3.2
2018-Jul-10 03:27N 47°27' W 004°10'1 1.5
2018-Jul-10 02:49N 47°28' W 004°10'3 3.4
2018-Jul-10 02:02N 47°28' W 004°06'0 4.8
2018-Jul-10 01:57N 47°28' W 004°06'1 1.9
2018-Jul-10 01:26N 47°28' W 004°04'1 3.1
2018-Jul-10 01:00N 47°28' W 004°02'1 1.7
2018-Jul-10 00:28N 47°29' W 004°02'2 3.2
2018-Jul-10 00:00N 47°28' W 004°05'2 3.2
2018-Jul-09 23:30N 47°28' W 004°07'2 3.2
2018-Jul-09 23:00N 47°27' W 004°09'9 1.3
2018-Jul-09 16:34N 47°29' W 003°57'1 3.7
2018-Jul-09 16:25N 47°29' W 003°56'1 2.2
2018-Jul-09 15:57N 47°30' W 003°55'1 3.3
2018-Jul-09 15:30N 47°31' W 003°54'2 3.3
2018-Jul-09 15:00N 47°33' W 003°56'1 0.3
2018-Jul-09 12:21N 47°33' W 003°55'1 2.3
2018-Jul-09 11:55N 47°33' W 003°57'8 1.7
2018-Jul-09 06:55N 47°32' W 004°09'1 2.8
2018-Jul-09 06:30N 47°31' W 004°10'2 3.3
2018-Jul-09 05:58N 47°32' W 004°12'21 3.8
2018-Jul-09 00:23N 47°51' W 003°56'3 8.0
2018-Jul-08 23:59N 47°47' W 003°56'4 8.0
2018-Jul-08 23:29N 47°43' W 003°55'4 7.9
2018-Jul-08 23:00N 47°40' W 003°54'4 7.6
2018-Jul-08 22:29N 47°36' W 003°56'4 7.7
2018-Jul-08 22:00N 47°33' W 003°59'4 7.8
2018-Jul-08 21:30N 47°30' W 004°02'  

Dump ship's entire track history